Three Lakes, WI

7:03 AM CST on January 29, 2015 (GMT -0600)
KWITHREE5 | Change Station
CLOSE
Current Station
Personal Weather Station
Location: Three Lakes - Little Fork Lake, WI
Elevation: 1617 ft
Nearby Weather Stations

Elev 1617 ft 45.83 °N, 89.11 °W | Updated 8 seconds ago

Overcast
Overcast
26.3 °F
Feels Like 26 °F
N
0.0
Wind Variable Wind from North
Gusts 6.0 mph

Today
High -- | Low -- °F
--% Chance of Precip.
Yesterday
High -- | Low -- °F
Precip. -- in
7:22 AM 4:57 PM
Waxing Gibbous, 74% visible
Pressure 29.80 in
Visibility 7.0 miles
Clouds Overcast 600 ft
Windchill 26 °F
Dew Point 26 °F
Humidity 97%
Rainfall 0.00 in
Snow Depth Not available.
UV 0 out of 12
Pollen .10 out of 12
Air Quality Not available.
Flu Activity Not available.
METAR KEGV 291230Z AUTO 32010G19KT 7SM OVC006 M03/M04 A2980 RMK AO2 T10261045

More Conditions Fewer Conditions

Pressure 29.80 in
Visibility 7.0 miles
Clouds Overcast 600 ft
Windchill 26 °F
Dew Point 26 °F
Humidity 97%
Rainfall 0.00 in
Snow Depth Not available.
UV 0 out of 12
Pollen .10 out of 12
Air Quality Not available.
Flu Activity Not available.
METAR KEGV 291230Z AUTO 32010G19KT 7SM OVC006 M03/M04 A2980 RMK AO2 T10261045

More Conditions Fewer Conditions

10-Day Weather Forecast

Almanac

Astronomy

Jan. 29, 2015 Rise Set
Actual Time
Civil Twilight
Nautical Twilight
Astronomical Twilight
Moon
Length of Visible Light
Length of Day
Tomorrow will be .
, % of the Moon is Illuminated

Today's Extremes

State Highs State Lows

Community

WunderPhotos

Upload Photos

1,791,424 photos uploaded!

WunderBlogs® & News

Nearby

Air Quality

  Air Quality AQ Index Pollutant
Not available.

Snow Depth

Station Depth Elevation

Earthquake Activity

City Distance Mag. Time & Date
Minimum magnitude displayed is 2.5.

Coastal Water Temperatures

Place Temperature

Nearby Weather Stations